sensor_id;sensor_type;location;lat;lon;timestamp;temperature;humidity
53264;DHT22;39153;52.680;6.172;2023-06-22T00:00:50;20.80;99.90
53264;DHT22;39153;52.680;6.172;2023-06-22T00:03:21;20.70;99.90
53264;DHT22;39153;52.680;6.172;2023-06-22T00:05:47;20.70;99.90
53264;DHT22;39153;52.680;6.172;2023-06-22T00:08:13;20.60;99.90
53264;DHT22;39153;52.680;6.172;2023-06-22T00:10:39;20.60;99.90
53264;DHT22;39153;52.680;6.172;2023-06-22T00:13:06;20.50;99.90
53264;DHT22;39153;52.680;6.172;2023-06-22T00:15:32;20.50;99.90
53264;DHT22;39153;52.680;6.172;2023-06-22T00:17:58;20.50;99.90
53264;DHT22;39153;52.680;6.172;2023-06-22T00:20:25;20.50;99.90
53264;DHT22;39153;52.680;6.172;2023-06-22T00:22:54;20.40;99.90
53264;DHT22;39153;52.680;6.172;2023-06-22T00:25:20;20.30;99.90
53264;DHT22;39153;52.680;6.172;2023-06-22T00:27:46;20.30;99.90
53264;DHT22;39153;52.680;6.172;2023-06-22T00:30:12;20.30;99.90
53264;DHT22;39153;52.680;6.172;2023-06-22T00:32:38;20.20;99.90
53264;DHT22;39153;52.680;6.172;2023-06-22T00:35:05;20.20;99.90
53264;DHT22;39153;52.680;6.172;2023-06-22T00:37:31;20.20;99.90
53264;DHT22;39153;52.680;6.172;2023-06-22T00:39:56;20.20;99.90
53264;DHT22;39153;52.680;6.172;2023-06-22T00:42:22;20.10;99.90
53264;DHT22;39153;52.680;6.172;2023-06-22T00:44:48;20.10;99.90
53264;DHT22;39153;52.680;6.172;2023-06-22T00:47:16;20.10;99.90
53264;DHT22;39153;52.680;6.172;2023-06-22T00:49:43;20.10;99.90
53264;DHT22;39153;52.680;6.172;2023-06-22T00:52:10;20.00;99.90
53264;DHT22;39153;52.680;6.172;2023-06-22T00:54:42;20.10;99.90
53264;DHT22;39153;52.680;6.172;2023-06-22T00:57:13;20.00;99.90
53264;DHT22;39153;52.680;6.172;2023-06-22T00:59:43;20.00;99.90
53264;DHT22;39153;52.680;6.172;2023-06-22T01:02:09;20.00;99.90
53264;DHT22;39153;52.680;6.172;2023-06-22T01:04:36;19.90;99.90
53264;DHT22;39153;52.680;6.172;2023-06-22T01:12:45;19.90;99.90
53264;DHT22;39153;52.680;6.172;2023-06-22T01:16:14;19.90;99.90
53264;DHT22;39153;52.680;6.172;2023-06-22T01:18:32;19.90;99.90
53264;DHT22;39153;52.680;6.172;2023-06-22T01:21:03;19.80;99.90
53264;DHT22;39153;52.680;6.172;2023-06-22T01:29:11;19.90;99.90
53264;DHT22;39153;52.680;6.172;2023-06-22T01:31:39;19.90;99.90
53264;DHT22;39153;52.680;6.172;2023-06-22T01:34:06;19.70;99.90
53264;DHT22;39153;52.680;6.172;2023-06-22T01:36:34;19.70;99.90
53264;DHT22;39153;52.680;6.172;2023-06-22T01:39:02;19.70;99.90
53264;DHT22;39153;52.680;6.172;2023-06-22T01:41:30;19.70;99.90
53264;DHT22;39153;52.680;6.172;2023-06-22T01:43:57;19.70;99.90
53264;DHT22;39153;52.680;6.172;2023-06-22T01:46:23;19.60;99.90
53264;DHT22;39153;52.680;6.172;2023-06-22T01:48:50;19.60;99.90
53264;DHT22;39153;52.680;6.172;2023-06-22T01:51:16;19.60;99.90
53264;DHT22;39153;52.680;6.172;2023-06-22T01:53:42;19.50;99.90
53264;DHT22;39153;52.680;6.172;2023-06-22T01:56:08;19.40;99.90
53264;DHT22;39153;52.680;6.172;2023-06-22T01:58:38;19.40;99.90
53264;DHT22;39153;52.680;6.172;2023-06-22T02:01:09;19.40;99.90
53264;DHT22;39153;52.680;6.172;2023-06-22T02:03:38;19.40;99.90
53264;DHT22;39153;52.680;6.172;2023-06-22T02:06:08;19.40;99.90
53264;DHT22;39153;52.680;6.172;2023-06-22T02:08:49;19.40;99.90
53264;DHT22;39153;52.680;6.172;2023-06-22T02:11:18;19.40;99.90
53264;DHT22;39153;52.680;6.172;2023-06-22T02:13:46;19.20;99.90
53264;DHT22;39153;52.680;6.172;2023-06-22T02:16:12;19.20;99.90
53264;DHT22;39153;52.680;6.172;2023-06-22T02:18:38;19.10;99.90
53264;DHT22;39153;52.680;6.172;2023-06-22T02:21:06;19.10;99.90
53264;DHT22;39153;52.680;6.172;2023-06-22T02:23:32;19.00;99.90
53264;DHT22;39153;52.680;6.172;2023-06-22T02:26:02;19.00;99.90
53264;DHT22;39153;52.680;6.172;2023-06-22T02:28:27;19.00;99.90
53264;DHT22;39153;52.680;6.172;2023-06-22T02:30:53;18.90;99.90
53264;DHT22;39153;52.680;6.172;2023-06-22T02:33:19;18.90;99.90
53264;DHT22;39153;52.680;6.172;2023-06-22T02:35:45;18.90;99.90
53264;DHT22;39153;52.680;6.172;2023-06-22T02:38:13;18.80;99.90
53264;DHT22;39153;52.680;6.172;2023-06-22T02:40:39;18.80;99.90
53264;DHT22;39153;52.680;6.172;2023-06-22T02:43:05;18.80;99.90
53264;DHT22;39153;52.680;6.172;2023-06-22T02:45:31;18.70;99.90
53264;DHT22;39153;52.680;6.172;2023-06-22T02:47:57;18.60;99.90
53264;DHT22;39153;52.680;6.172;2023-06-22T02:50:23;18.60;99.90
53264;DHT22;39153;52.680;6.172;2023-06-22T02:52:48;18.50;99.90
53264;DHT22;39153;52.680;6.172;2023-06-22T02:55:14;18.40;99.90
53264;DHT22;39153;52.680;6.172;2023-06-22T02:57:40;18.40;99.90
53264;DHT22;39153;52.680;6.172;2023-06-22T03:00:10;18.40;99.90
53264;DHT22;39153;52.680;6.172;2023-06-22T03:02:45;18.40;99.90
53264;DHT22;39153;52.680;6.172;2023-06-22T03:05:12;18.40;99.90
53264;DHT22;39153;52.680;6.172;2023-06-22T03:07:40;18.40;99.90
53264;DHT22;39153;52.680;6.172;2023-06-22T03:10:08;18.40;99.90
53264;DHT22;39153;52.680;6.172;2023-06-22T03:12:35;18.40;99.90
53264;DHT22;39153;52.680;6.172;2023-06-22T03:15:00;18.30;99.90
53264;DHT22;39153;52.680;6.172;2023-06-22T03:17:26;18.40;99.90
53264;DHT22;39153;52.680;6.172;2023-06-22T03:19:52;18.40;99.90
53264;DHT22;39153;52.680;6.172;2023-06-22T03:22:17;18.40;99.90
53264;DHT22;39153;52.680;6.172;2023-06-22T03:24:43;18.40;99.90
53264;DHT22;39153;52.680;6.172;2023-06-22T03:27:09;18.30;99.90
53264;DHT22;39153;52.680;6.172;2023-06-22T03:29:34;18.30;99.90
53264;DHT22;39153;52.680;6.172;2023-06-22T03:32:00;18.20;99.90
53264;DHT22;39153;52.680;6.172;2023-06-22T03:34:26;18.20;99.90
53264;DHT22;39153;52.680;6.172;2023-06-22T03:36:52;18.20;99.90
53264;DHT22;39153;52.680;6.172;2023-06-22T03:39:17;18.20;99.90
53264;DHT22;39153;52.680;6.172;2023-06-22T03:41:43;18.10;99.90
53264;DHT22;39153;52.680;6.172;2023-06-22T03:44:09;18.20;99.90
53264;DHT22;39153;52.680;6.172;2023-06-22T03:46:37;18.10;99.90
53264;DHT22;39153;52.680;6.172;2023-06-22T03:49:03;18.10;99.90
53264;DHT22;39153;52.680;6.172;2023-06-22T03:51:31;18.10;99.90
53264;DHT22;39153;52.680;6.172;2023-06-22T03:53:57;18.00;99.90
53264;DHT22;39153;52.680;6.172;2023-06-22T03:56:22;18.00;99.90
53264;DHT22;39153;52.680;6.172;2023-06-22T03:58:48;18.10;99.90
53264;DHT22;39153;52.680;6.172;2023-06-22T04:01:14;18.10;99.90
53264;DHT22;39153;52.680;6.172;2023-06-22T04:03:41;18.10;99.90
53264;DHT22;39153;52.680;6.172;2023-06-22T04:06:06;18.10;99.90
53264;DHT22;39153;52.680;6.172;2023-06-22T04:08:32;18.00;99.90
53264;DHT22;39153;52.680;6.172;2023-06-22T04:10:58;18.00;99.90
53264;DHT22;39153;52.680;6.172;2023-06-22T04:13:23;18.00;99.90
53264;DHT22;39153;52.680;6.172;2023-06-22T04:15:49;18.10;99.90
53264;DHT22;39153;52.680;6.172;2023-06-22T04:18:15;18.00;99.90
53264;DHT22;39153;52.680;6.172;2023-06-22T04:20:40;18.00;99.90
53264;DHT22;39153;52.680;6.172;2023-06-22T04:23:06;18.00;99.90
53264;DHT22;39153;52.680;6.172;2023-06-22T04:25:32;18.00;99.90
53264;DHT22;39153;52.680;6.172;2023-06-22T04:27:57;18.10;99.90
53264;DHT22;39153;52.680;6.172;2023-06-22T04:30:23;18.10;99.90
53264;DHT22;39153;52.680;6.172;2023-06-22T04:32:49;18.10;99.90
53264;DHT22;39153;52.680;6.172;2023-06-22T04:35:22;18.10;99.90
53264;DHT22;39153;52.680;6.172;2023-06-22T04:37:48;18.20;99.90
53264;DHT22;39153;52.680;6.172;2023-06-22T04:40:15;18.30;99.90
53264;DHT22;39153;52.680;6.172;2023-06-22T04:42:41;18.30;99.90
53264;DHT22;39153;52.680;6.172;2023-06-22T04:45:17;18.30;99.90
53264;DHT22;39153;52.680;6.172;2023-06-22T04:47:43;18.30;99.90
53264;DHT22;39153;52.680;6.172;2023-06-22T04:50:11;18.30;99.90
53264;DHT22;39153;52.680;6.172;2023-06-22T04:52:37;18.40;99.90
53264;DHT22;39153;52.680;6.172;2023-06-22T04:55:03;18.40;99.90
53264;DHT22;39153;52.680;6.172;2023-06-22T04:57:29;18.50;99.90
53264;DHT22;39153;52.680;6.172;2023-06-22T05:00:01;18.50;99.90
53264;DHT22;39153;52.680;6.172;2023-06-22T05:02:41;18.70;99.90
53264;DHT22;39153;52.680;6.172;2023-06-22T05:05:07;18.60;99.90
53264;DHT22;39153;52.680;6.172;2023-06-22T05:07:36;18.60;99.90
53264;DHT22;39153;52.680;6.172;2023-06-22T05:10:03;18.70;99.90
53264;DHT22;39153;52.680;6.172;2023-06-22T05:12:30;18.70;99.90
53264;DHT22;39153;52.680;6.172;2023-06-22T05:14:56;18.80;99.90
53264;DHT22;39153;52.680;6.172;2023-06-22T05:17:22;18.80;99.90
53264;DHT22;39153;52.680;6.172;2023-06-22T05:19:48;18.90;99.90
53264;DHT22;39153;52.680;6.172;2023-06-22T05:22:15;18.90;99.90
53264;DHT22;39153;52.680;6.172;2023-06-22T05:24:41;18.90;99.90
53264;DHT22;39153;52.680;6.172;2023-06-22T05:27:07;19.00;99.90
53264;DHT22;39153;52.680;6.172;2023-06-22T05:29:32;19.00;99.90
53264;DHT22;39153;52.680;6.172;2023-06-22T05:31:58;19.10;99.90
53264;DHT22;39153;52.680;6.172;2023-06-22T05:34:23;19.10;99.90
53264;DHT22;39153;52.680;6.172;2023-06-22T05:36:49;19.20;99.90
53264;DHT22;39153;52.680;6.172;2023-06-22T05:39:15;19.20;99.90
53264;DHT22;39153;52.680;6.172;2023-06-22T05:41:42;19.20;99.90
53264;DHT22;39153;52.680;6.172;2023-06-22T05:44:08;19.20;99.90
53264;DHT22;39153;52.680;6.172;2023-06-22T05:46:34;19.20;99.90
53264;DHT22;39153;52.680;6.172;2023-06-22T05:49:00;19.30;99.90
53264;DHT22;39153;52.680;6.172;2023-06-22T05:51:25;19.20;99.90
53264;DHT22;39153;52.680;6.172;2023-06-22T05:53:51;19.20;99.90
53264;DHT22;39153;52.680;6.172;2023-06-22T05:56:17;19.10;99.90
53264;DHT22;39153;52.680;6.172;2023-06-22T05:58:43;19.10;99.90
53264;DHT22;39153;52.680;6.172;2023-06-22T06:01:08;19.20;99.90
53264;DHT22;39153;52.680;6.172;2023-06-22T06:03:34;19.20;99.90
53264;DHT22;39153;52.680;6.172;2023-06-22T06:06:06;19.20;99.90
53264;DHT22;39153;52.680;6.172;2023-06-22T06:08:32;19.20;99.90
53264;DHT22;39153;52.680;6.172;2023-06-22T06:10:58;19.30;99.90
53264;DHT22;39153;52.680;6.172;2023-06-22T06:13:24;19.40;99.90
53264;DHT22;39153;52.680;6.172;2023-06-22T06:15:50;19.50;99.90
53264;DHT22;39153;52.680;6.172;2023-06-22T06:18:20;19.60;99.90
53264;DHT22;39153;52.680;6.172;2023-06-22T06:20:46;19.70;99.90
53264;DHT22;39153;52.680;6.172;2023-06-22T06:23:12;19.70;99.90
53264;DHT22;39153;52.680;6.172;2023-06-22T06:25:37;19.80;99.90
53264;DHT22;39153;52.680;6.172;2023-06-22T06:28:03;19.90;99.90
53264;DHT22;39153;52.680;6.172;2023-06-22T06:30:29;20.00;99.90
53264;DHT22;39153;52.680;6.172;2023-06-22T06:32:55;20.00;99.90
53264;DHT22;39153;52.680;6.172;2023-06-22T06:35:21;20.10;99.90
53264;DHT22;39153;52.680;6.172;2023-06-22T06:37:49;20.10;99.90
53264;DHT22;39153;52.680;6.172;2023-06-22T06:40:16;20.20;99.90
53264;DHT22;39153;52.680;6.172;2023-06-22T06:42:49;20.20;99.90
53264;DHT22;39153;52.680;6.172;2023-06-22T06:45:22;20.40;99.90
53264;DHT22;39153;52.680;6.172;2023-06-22T06:47:49;20.50;99.90
53264;DHT22;39153;52.680;6.172;2023-06-22T06:50:15;20.50;99.90
53264;DHT22;39153;52.680;6.172;2023-06-22T06:52:41;20.60;99.90
53264;DHT22;39153;52.680;6.172;2023-06-22T06:55:08;20.60;99.90
53264;DHT22;39153;52.680;6.172;2023-06-22T06:57:37;20.70;99.90
53264;DHT22;39153;52.680;6.172;2023-06-22T07:00:08;20.80;99.90
53264;DHT22;39153;52.680;6.172;2023-06-22T07:02:39;20.80;99.90
53264;DHT22;39153;52.680;6.172;2023-06-22T07:05:06;20.80;99.90
53264;DHT22;39153;52.680;6.172;2023-06-22T07:07:32;21.00;99.90
53264;DHT22;39153;52.680;6.172;2023-06-22T07:09:58;21.00;99.90
53264;DHT22;39153;52.680;6.172;2023-06-22T07:12:24;21.00;99.90
53264;DHT22;39153;52.680;6.172;2023-06-22T07:14:49;21.00;99.90
53264;DHT22;39153;52.680;6.172;2023-06-22T07:17:16;21.10;99.90
53264;DHT22;39153;52.680;6.172;2023-06-22T07:19:42;21.10;99.90
53264;DHT22;39153;52.680;6.172;2023-06-22T07:22:07;21.20;99.90
53264;DHT22;39153;52.680;6.172;2023-06-22T07:24:33;21.30;99.90
53264;DHT22;39153;52.680;6.172;2023-06-22T07:26:59;21.30;99.90
53264;DHT22;39153;52.680;6.172;2023-06-22T07:29:25;21.30;99.90
53264;DHT22;39153;52.680;6.172;2023-06-22T07:31:52;21.40;99.90
53264;DHT22;39153;52.680;6.172;2023-06-22T07:34:18;21.50;99.90
53264;DHT22;39153;52.680;6.172;2023-06-22T07:36:44;21.60;99.90
53264;DHT22;39153;52.680;6.172;2023-06-22T07:39:11;21.60;99.90
53264;DHT22;39153;52.680;6.172;2023-06-22T07:41:39;21.60;99.90
53264;DHT22;39153;52.680;6.172;2023-06-22T07:44:05;21.70;99.90
53264;DHT22;39153;52.680;6.172;2023-06-22T07:46:32;21.60;99.90
53264;DHT22;39153;52.680;6.172;2023-06-22T07:48:57;21.70;99.90
53264;DHT22;39153;52.680;6.172;2023-06-22T07:51:25;21.80;99.90
53264;DHT22;39153;52.680;6.172;2023-06-22T07:53:50;21.80;99.90
53264;DHT22;39153;52.680;6.172;2023-06-22T07:56:16;21.90;99.90
53264;DHT22;39153;52.680;6.172;2023-06-22T07:58:46;21.90;99.90
53264;DHT22;39153;52.680;6.172;2023-06-22T08:01:13;21.90;99.90
53264;DHT22;39153;52.680;6.172;2023-06-22T08:03:39;22.00;99.90
53264;DHT22;39153;52.680;6.172;2023-06-22T08:06:05;22.00;99.90
53264;DHT22;39153;52.680;6.172;2023-06-22T08:08:31;22.10;99.90
53264;DHT22;39153;52.680;6.172;2023-06-22T08:10:57;22.10;99.90
53264;DHT22;39153;52.680;6.172;2023-06-22T08:13:23;22.20;99.90
53264;DHT22;39153;52.680;6.172;2023-06-22T08:15:48;22.20;99.90
53264;DHT22;39153;52.680;6.172;2023-06-22T08:18:14;22.30;99.90
53264;DHT22;39153;52.680;6.172;2023-06-22T08:20:40;22.40;99.90
53264;DHT22;39153;52.680;6.172;2023-06-22T08:23:06;22.50;99.90
53264;DHT22;39153;52.680;6.172;2023-06-22T08:25:33;22.60;99.90
53264;DHT22;39153;52.680;6.172;2023-06-22T08:28:00;22.60;99.90
53264;DHT22;39153;52.680;6.172;2023-06-22T08:30:26;22.70;99.90
53264;DHT22;39153;52.680;6.172;2023-06-22T08:32:52;22.80;99.90
53264;DHT22;39153;52.680;6.172;2023-06-22T08:35:19;22.90;99.90
53264;DHT22;39153;52.680;6.172;2023-06-22T08:37:46;23.00;99.90
53264;DHT22;39153;52.680;6.172;2023-06-22T08:40:20;23.00;99.90
53264;DHT22;39153;52.680;6.172;2023-06-22T08:42:46;23.10;99.90
53264;DHT22;39153;52.680;6.172;2023-06-22T08:45:12;23.10;99.90
53264;DHT22;39153;52.680;6.172;2023-06-22T08:47:39;23.20;99.90
53264;DHT22;39153;52.680;6.172;2023-06-22T08:50:07;23.20;99.90
53264;DHT22;39153;52.680;6.172;2023-06-22T08:52:34;23.30;99.90
53264;DHT22;39153;52.680;6.172;2023-06-22T08:55:00;23.40;99.90
53264;DHT22;39153;52.680;6.172;2023-06-22T08:57:26;23.50;99.90
53264;DHT22;39153;52.680;6.172;2023-06-22T08:59:52;23.60;99.90
53264;DHT22;39153;52.680;6.172;2023-06-22T09:02:18;23.70;99.90
53264;DHT22;39153;52.680;6.172;2023-06-22T09:04:46;23.80;99.90
53264;DHT22;39153;52.680;6.172;2023-06-22T09:07:11;23.90;99.90
53264;DHT22;39153;52.680;6.172;2023-06-22T09:09:37;24.00;99.90
53264;DHT22;39153;52.680;6.172;2023-06-22T09:12:03;24.10;99.90
53264;DHT22;39153;52.680;6.172;2023-06-22T09:14:29;24.20;99.90
53264;DHT22;39153;52.680;6.172;2023-06-22T09:16:55;24.30;99.90
53264;DHT22;39153;52.680;6.172;2023-06-22T09:19:20;24.60;99.90
53264;DHT22;39153;52.680;6.172;2023-06-22T09:21:46;24.70;99.90
53264;DHT22;39153;52.680;6.172;2023-06-22T09:24:12;24.90;99.90
53264;DHT22;39153;52.680;6.172;2023-06-22T09:26:37;25.00;99.90
53264;DHT22;39153;52.680;6.172;2023-06-22T09:29:05;25.10;99.90
53264;DHT22;39153;52.680;6.172;2023-06-22T09:31:31;25.10;99.90
53264;DHT22;39153;52.680;6.172;2023-06-22T09:33:57;25.20;99.90
53264;DHT22;39153;52.680;6.172;2023-06-22T09:36:23;25.40;99.90
53264;DHT22;39153;52.680;6.172;2023-06-22T09:38:49;25.40;99.90
53264;DHT22;39153;52.680;6.172;2023-06-22T09:41:20;25.40;99.90
53264;DHT22;39153;52.680;6.172;2023-06-22T09:43:46;25.40;99.90
53264;DHT22;39153;52.680;6.172;2023-06-22T09:46:17;25.40;99.90
53264;DHT22;39153;52.680;6.172;2023-06-22T09:48:43;25.40;99.90
53264;DHT22;39153;52.680;6.172;2023-06-22T09:51:09;25.30;99.90
53264;DHT22;39153;52.680;6.172;2023-06-22T09:53:34;25.30;99.90
53264;DHT22;39153;52.680;6.172;2023-06-22T09:56:01;25.30;99.90
53264;DHT22;39153;52.680;6.172;2023-06-22T09:58:27;25.50;99.90
53264;DHT22;39153;52.680;6.172;2023-06-22T10:00:53;25.60;99.90
53264;DHT22;39153;52.680;6.172;2023-06-22T10:03:20;25.70;99.90
53264;DHT22;39153;52.680;6.172;2023-06-22T10:05:46;26.00;99.90
53264;DHT22;39153;52.680;6.172;2023-06-22T10:08:11;26.00;99.90
53264;DHT22;39153;52.680;6.172;2023-06-22T10:10:37;26.10;99.90
53264;DHT22;39153;52.680;6.172;2023-06-22T10:13:08;26.20;99.90
53264;DHT22;39153;52.680;6.172;2023-06-22T10:15:35;26.30;99.90
53264;DHT22;39153;52.680;6.172;2023-06-22T10:18:01;26.50;99.90
53264;DHT22;39153;52.680;6.172;2023-06-22T10:20:27;26.60;99.90
53264;DHT22;39153;52.680;6.172;2023-06-22T10:22:53;26.70;99.90
53264;DHT22;39153;52.680;6.172;2023-06-22T10:25:19;26.70;99.90
53264;DHT22;39153;52.680;6.172;2023-06-22T10:27:45;26.80;99.90
53264;DHT22;39153;52.680;6.172;2023-06-22T10:30:12;26.80;99.90
53264;DHT22;39153;52.680;6.172;2023-06-22T10:32:38;26.80;99.90
53264;DHT22;39153;52.680;6.172;2023-06-22T10:35:06;26.80;99.90
53264;DHT22;39153;52.680;6.172;2023-06-22T10:37:32;26.70;99.90
53264;DHT22;39153;52.680;6.172;2023-06-22T10:39:57;26.60;99.90
53264;DHT22;39153;52.680;6.172;2023-06-22T10:42:23;26.50;99.90
53264;DHT22;39153;52.680;6.172;2023-06-22T10:44:49;26.40;99.90
53264;DHT22;39153;52.680;6.172;2023-06-22T10:47:14;26.30;99.90
53264;DHT22;39153;52.680;6.172;2023-06-22T10:49:40;26.30;99.90
53264;DHT22;39153;52.680;6.172;2023-06-22T10:52:07;26.30;99.90
53264;DHT22;39153;52.680;6.172;2023-06-22T10:54:34;26.30;99.90
53264;DHT22;39153;52.680;6.172;2023-06-22T10:57:00;26.30;99.90
53264;DHT22;39153;52.680;6.172;2023-06-22T10:59:26;26.20;99.90
53264;DHT22;39153;52.680;6.172;2023-06-22T11:01:53;26.20;99.90
53264;DHT22;39153;52.680;6.172;2023-06-22T11:04:18;26.20;99.90
53264;DHT22;39153;52.680;6.172;2023-06-22T11:06:44;26.20;99.90
53264;DHT22;39153;52.680;6.172;2023-06-22T11:09:10;26.20;99.90
53264;DHT22;39153;52.680;6.172;2023-06-22T11:11:35;26.20;99.90
53264;DHT22;39153;52.680;6.172;2023-06-22T11:14:01;26.30;99.90
53264;DHT22;39153;52.680;6.172;2023-06-22T11:16:27;26.30;99.90
53264;DHT22;39153;52.680;6.172;2023-06-22T11:18:53;26.30;99.90
53264;DHT22;39153;52.680;6.172;2023-06-22T11:21:18;26.30;99.90
53264;DHT22;39153;52.680;6.172;2023-06-22T11:23:44;26.30;99.90
53264;DHT22;39153;52.680;6.172;2023-06-22T11:26:10;26.30;99.90
53264;DHT22;39153;52.680;6.172;2023-06-22T11:28:36;26.30;99.90
53264;DHT22;39153;52.680;6.172;2023-06-22T11:31:01;26.30;99.90
53264;DHT22;39153;52.680;6.172;2023-06-22T11:33:27;26.30;99.90
53264;DHT22;39153;52.680;6.172;2023-06-22T11:35:53;26.30;99.90
53264;DHT22;39153;52.680;6.172;2023-06-22T11:38:18;26.40;99.90
53264;DHT22;39153;52.680;6.172;2023-06-22T11:40:44;26.40;99.90
53264;DHT22;39153;52.680;6.172;2023-06-22T11:43:10;26.30;99.90
53264;DHT22;39153;52.680;6.172;2023-06-22T11:45:35;26.30;99.90
53264;DHT22;39153;52.680;6.172;2023-06-22T11:48:01;26.30;99.90
53264;DHT22;39153;52.680;6.172;2023-06-22T11:50:27;26.30;99.90
53264;DHT22;39153;52.680;6.172;2023-06-22T11:52:55;26.20;99.90
53264;DHT22;39153;52.680;6.172;2023-06-22T11:55:21;26.20;99.90
53264;DHT22;39153;52.680;6.172;2023-06-22T11:57:54;26.30;99.90
53264;DHT22;39153;52.680;6.172;2023-06-22T12:00:21;26.30;99.90
53264;DHT22;39153;52.680;6.172;2023-06-22T12:02:52;26.30;99.90
53264;DHT22;39153;52.680;6.172;2023-06-22T12:05:21;26.30;99.90
53264;DHT22;39153;52.680;6.172;2023-06-22T12:07:48;26.30;99.90
53264;DHT22;39153;52.680;6.172;2023-06-22T12:10:14;26.30;99.90
53264;DHT22;39153;52.680;6.172;2023-06-22T12:12:40;26.30;99.90
53264;DHT22;39153;52.680;6.172;2023-06-22T12:15:06;26.30;99.90
53264;DHT22;39153;52.680;6.172;2023-06-22T12:17:31;26.30;99.90
53264;DHT22;39153;52.680;6.172;2023-06-22T12:19:58;26.30;99.90
53264;DHT22;39153;52.680;6.172;2023-06-22T12:22:24;26.30;99.90
53264;DHT22;39153;52.680;6.172;2023-06-22T12:24:49;26.20;99.90
53264;DHT22;39153;52.680;6.172;2023-06-22T12:27:17;26.20;99.90
53264;DHT22;39153;52.680;6.172;2023-06-22T12:29:46;26.20;99.90
53264;DHT22;39153;52.680;6.172;2023-06-22T12:32:13;26.20;99.90
53264;DHT22;39153;52.680;6.172;2023-06-22T12:34:39;26.10;99.90
53264;DHT22;39153;52.680;6.172;2023-06-22T12:37:05;26.00;99.90
53264;DHT22;39153;52.680;6.172;2023-06-22T12:39:32;26.00;99.90
53264;DHT22;39153;52.680;6.172;2023-06-22T12:41:57;25.90;99.90
53264;DHT22;39153;52.680;6.172;2023-06-22T12:44:23;25.90;99.90
53264;DHT22;39153;52.680;6.172;2023-06-22T12:46:49;25.90;99.90
53264;DHT22;39153;52.680;6.172;2023-06-22T12:49:16;25.80;99.90
53264;DHT22;39153;52.680;6.172;2023-06-22T12:51:43;25.80;99.90
53264;DHT22;39153;52.680;6.172;2023-06-22T12:54:08;25.80;99.80
53264;DHT22;39153;52.680;6.172;2023-06-22T12:56:34;25.70;99.80
53264;DHT22;39153;52.680;6.172;2023-06-22T12:59:00;25.70;99.90
53264;DHT22;39153;52.680;6.172;2023-06-22T13:01:28;25.70;99.90
53264;DHT22;39153;52.680;6.172;2023-06-22T13:03:56;25.60;99.70
53264;DHT22;39153;52.680;6.172;2023-06-22T13:06:22;25.60;99.80
53264;DHT22;39153;52.680;6.172;2023-06-22T13:08:47;25.50;99.90
53264;DHT22;39153;52.680;6.172;2023-06-22T13:11:13;25.50;99.90
53264;DHT22;39153;52.680;6.172;2023-06-22T13:13:39;25.50;99.90
53264;DHT22;39153;52.680;6.172;2023-06-22T13:16:05;25.50;99.90
53264;DHT22;39153;52.680;6.172;2023-06-22T13:18:31;25.50;99.90
53264;DHT22;39153;52.680;6.172;2023-06-22T13:20:57;25.40;99.90
53264;DHT22;39153;52.680;6.172;2023-06-22T13:23:23;25.30;99.90
53264;DHT22;39153;52.680;6.172;2023-06-22T13:25:49;25.30;99.90
53264;DHT22;39153;52.680;6.172;2023-06-22T13:28:15;25.20;99.90
53264;DHT22;39153;52.680;6.172;2023-06-22T13:30:42;25.10;99.90
53264;DHT22;39153;52.680;6.172;2023-06-22T13:33:08;25.00;99.90
53264;DHT22;39153;52.680;6.172;2023-06-22T13:35:34;24.90;99.90
53264;DHT22;39153;52.680;6.172;2023-06-22T13:38:03;24.80;99.90
53264;DHT22;39153;52.680;6.172;2023-06-22T13:40:29;24.70;99.90
53264;DHT22;39153;52.680;6.172;2023-06-22T13:42:55;24.70;99.90
53264;DHT22;39153;52.680;6.172;2023-06-22T13:45:21;24.60;99.90
53264;DHT22;39153;52.680;6.172;2023-06-22T13:47:47;24.60;99.90
53264;DHT22;39153;52.680;6.172;2023-06-22T13:50:13;24.60;99.90
53264;DHT22;39153;52.680;6.172;2023-06-22T13:52:39;24.60;99.90
53264;DHT22;39153;52.680;6.172;2023-06-22T13:55:05;24.60;99.90
53264;DHT22;39153;52.680;6.172;2023-06-22T13:57:33;24.60;99.90
53264;DHT22;39153;52.680;6.172;2023-06-22T13:59:59;24.60;99.90
53264;DHT22;39153;52.680;6.172;2023-06-22T14:02:28;24.60;99.90
53264;DHT22;39153;52.680;6.172;2023-06-22T14:04:54;24.60;99.90
53264;DHT22;39153;52.680;6.172;2023-06-22T14:07:19;24.50;99.90
53264;DHT22;39153;52.680;6.172;2023-06-22T14:09:46;24.40;99.90
53264;DHT22;39153;52.680;6.172;2023-06-22T14:12:12;24.30;99.90
53264;DHT22;39153;52.680;6.172;2023-06-22T14:14:38;24.30;99.90
53264;DHT22;39153;52.680;6.172;2023-06-22T14:17:05;24.30;99.90
53264;DHT22;39153;52.680;6.172;2023-06-22T14:19:31;24.30;99.90
53264;DHT22;39153;52.680;6.172;2023-06-22T14:21:56;24.20;99.90
53264;DHT22;39153;52.680;6.172;2023-06-22T14:24:23;24.20;99.90
53264;DHT22;39153;52.680;6.172;2023-06-22T14:26:48;24.10;99.90
53264;DHT22;39153;52.680;6.172;2023-06-22T14:29:14;24.00;99.90
53264;DHT22;39153;52.680;6.172;2023-06-22T14:31:40;23.90;99.90
53264;DHT22;39153;52.680;6.172;2023-06-22T14:34:06;23.90;99.90
53264;DHT22;39153;52.680;6.172;2023-06-22T14:36:32;23.80;99.90
53264;DHT22;39153;52.680;6.172;2023-06-22T14:38:57;23.70;99.90
53264;DHT22;39153;52.680;6.172;2023-06-22T14:41:23;23.60;99.90
53264;DHT22;39153;52.680;6.172;2023-06-22T14:43:50;23.50;99.90
53264;DHT22;39153;52.680;6.172;2023-06-22T14:46:17;23.40;99.90
53264;DHT22;39153;52.680;6.172;2023-06-22T14:48:43;23.30;99.90
53264;DHT22;39153;52.680;6.172;2023-06-22T14:51:09;23.30;99.90
53264;DHT22;39153;52.680;6.172;2023-06-22T14:53:36;23.20;99.90
53264;DHT22;39153;52.680;6.172;2023-06-22T14:56:02;23.10;99.90
53264;DHT22;39153;52.680;6.172;2023-06-22T14:58:30;23.10;99.90
53264;DHT22;39153;52.680;6.172;2023-06-22T15:00:59;23.00;99.90
53264;DHT22;39153;52.680;6.172;2023-06-22T15:03:25;23.00;99.90
53264;DHT22;39153;52.680;6.172;2023-06-22T15:05:54;22.90;99.90
53264;DHT22;39153;52.680;6.172;2023-06-22T15:08:20;22.90;99.90
53264;DHT22;39153;52.680;6.172;2023-06-22T15:10:46;22.90;99.90
53264;DHT22;39153;52.680;6.172;2023-06-22T15:13:12;22.90;99.90
53264;DHT22;39153;52.680;6.172;2023-06-22T15:15:38;22.80;99.90
53264;DHT22;39153;52.680;6.172;2023-06-22T15:18:03;22.80;99.90
53264;DHT22;39153;52.680;6.172;2023-06-22T15:20:29;22.80;99.90
53264;DHT22;39153;52.680;6.172;2023-06-22T15:22:57;22.70;99.90
53264;DHT22;39153;52.680;6.172;2023-06-22T15:25:22;22.70;99.90
53264;DHT22;39153;52.680;6.172;2023-06-22T15:27:48;22.70;99.90
53264;DHT22;39153;52.680;6.172;2023-06-22T15:30:14;22.60;99.90
53264;DHT22;39153;52.680;6.172;2023-06-22T15:32:43;22.50;99.90
53264;DHT22;39153;52.680;6.172;2023-06-22T15:35:10;22.50;99.90
53264;DHT22;39153;52.680;6.172;2023-06-22T15:37:35;22.40;99.90